Time;durP1;ratioP1;P1;durP2;ratioP2;P2;SDS_P1;SDS_P2;PMS_P1;PMS_P2;Temp;Humidity;BMP_temperature;BMP_pressure;BME280_temperature;BME280_humidity;BME280_pressure;Samples;Min_cycle;Max_cycle;Signal;HPM_P1;HPM_P2
2022/05/09 00:00:21;;;;;;;;;;;24.80;45.80;;;;;;1563958;75;1151;-66
2022/05/09 00:02:23;;;;;;;;;;;24.80;45.80;;;;;;1563778;74;743;-66
2022/05/09 00:04:24;;;;;;;;;;;24.80;45.90;;;;;;1580272;74;682;-67
2022/05/09 00:06:26;;;;;;;;;;;24.80;45.90;;;;;;1564970;76;649;-67
2022/05/09 00:08:28;;;;;;;;;;;24.80;45.90;;;;;;1565048;76;717;-66
2022/05/09 00:10:30;;;;;;;;;;;24.80;45.80;;;;;;1556321;75;1163;-65
2022/05/09 00:12:32;;;;;;;;;;;24.80;45.90;;;;;;1562224;76;715;-68
2022/05/09 00:14:34;;;;;;;;;;;24.80;45.90;;;;;;1545587;76;687;-66
2022/05/09 00:16:36;;;;;;;;;;;24.80;45.80;;;;;;1555651;75;1680;-67
2022/05/09 00:18:38;;;;;;;;;;;24.80;45.80;;;;;;1580688;74;511;-66
2022/05/09 00:20:40;;;;;;;;;;;24.80;45.80;;;;;;1565321;74;1155;-69
2022/05/09 00:22:43;;;;;;;;;;;24.80;45.80;;;;;;1564910;76;736;-67
2022/05/09 00:24:45;;;;;;;;;;;24.80;45.90;;;;;;1564902;76;742;-67
2022/05/09 00:26:47;;;;;;;;;;;24.80;45.90;;;;;;1565194;76;738;-66
2022/05/09 00:28:49;;;;;;;;;;;24.80;45.90;;;;;;1568020;76;656;-65
2022/05/09 00:30:51;;;;;;;;;;;24.80;45.90;;;;;;1564858;74;1173;-67
2022/05/09 00:32:53;;;;;;;;;;;24.80;45.90;;;;;;1577830;74;1916;-67
2022/05/09 00:34:55;;;;;;;;;;;24.80;45.90;;;;;;1565077;75;1484;-68
2022/05/09 00:36:58;;;;;;;;;;;24.80;45.90;;;;;;1564122;76;719;-66
2022/05/09 00:39:01;;;;;;;;;;;24.80;45.90;;;;;;1537524;76;852;-66
2022/05/09 00:43:27;;;;;;;;;;;24.80;45.80;;;;;;1553939;76;1638;-66
2022/05/09 00:45:29;;;;;;;;;;;24.80;45.80;;;;;;1564312;76;1626;-66
2022/05/09 00:47:31;;;;;;;;;;;24.80;45.80;;;;;;1553817;75;681;-66
2022/05/09 00:49:40;;;;;;;;;;;24.70;45.70;;;;;;1535512;77;725;-66
2022/05/09 00:51:40;;;;;;;;;;;24.80;45.80;;;;;;1535946;76;1471;-68
2022/05/09 00:53:42;;;;;;;;;;;24.70;45.70;;;;;;1564948;76;1944;-67
2022/05/09 00:55:48;;;;;;;;;;;24.80;45.70;;;;;;1565014;76;658;-69
2022/05/09 00:57:53;;;;;;;;;;;24.70;45.80;;;;;;1564980;76;746;-67
2022/05/09 00:59:56;;;;;;;;;;;24.70;45.80;;;;;;1549985;75;1136;-67
2022/05/09 01:01:58;;;;;;;;;;;24.70;45.90;;;;;;1575613;74;659;-66
2022/05/09 01:04:07;;;;;;;;;;;24.70;45.90;;;;;;1565404;74;676;-67
2022/05/09 01:06:09;;;;;;;;;;;24.70;46.00;;;;;;1564846;76;680;-67
2022/05/09 01:08:11;;;;;;;;;;;24.70;46.00;;;;;;1561650;74;698;-67
2022/05/09 01:10:14;;;;;;;;;;;24.80;46.00;;;;;;1577862;73;1144;-67
2022/05/09 01:12:18;;;;;;;;;;;24.70;46.00;;;;;;1563964;74;1572;-67
2022/05/09 01:14:21;;;;;;;;;;;24.80;46.00;;;;;;1540310;77;1935;-69
2022/05/09 01:16:23;;;;;;;;;;;24.70;45.90;;;;;;1559236;76;648;-69
2022/05/09 01:18:25;;;;;;;;;;;24.70;46.00;;;;;;1561958;76;712;-69
2022/05/09 01:20:27;;;;;;;;;;;24.70;45.90;;;;;;1562779;75;1163;-68
2022/05/09 01:22:29;;;;;;;;;;;24.70;46.00;;;;;;1565037;76;635;-69
2022/05/09 01:24:31;;;;;;;;;;;24.70;46.00;;;;;;1564893;75;663;-68
2022/05/09 01:26:34;;;;;;;;;;;24.70;45.90;;;;;;1567021;74;706;-68
2022/05/09 01:28:36;;;;;;;;;;;24.70;46.00;;;;;;1557081;76;843;-68
2022/05/09 01:30:56;;;;;;;;;;;24.70;45.90;;;;;;1563952;75;1163;-68
2022/05/09 01:33:03;;;;;;;;;;;24.70;45.90;;;;;;1554134;76;719;-67
2022/05/09 01:35:09;;;;;;;;;;;24.70;46.00;;;;;;1562360;76;743;-68
2022/05/09 01:37:11;;;;;;;;;;;24.60;45.80;;;;;;1556406;76;664;-68
2022/05/09 01:39:13;;;;;;;;;;;24.70;45.90;;;;;;1549956;76;711;-68
2022/05/09 01:41:15;;;;;;;;;;;24.70;45.90;;;;;;1558767;72;230716;-64
2022/05/09 01:43:29;;;;;;;;;;;24.70;46.00;;;;;;1553512;76;657;-64
2022/05/09 01:45:31;;;;;;;;;;;24.80;45.90;;;;;;1543172;77;484;-63
2022/05/09 01:49:53;;;;;;;;;;;24.70;45.90;;;;;;1562264;76;1635;-65
2022/05/09 01:51:55;;;;;;;;;;;24.70;45.90;;;;;;1569916;76;1119;-67
2022/05/09 01:53:57;;;;;;;;;;;24.70;45.90;;;;;;1569881;76;2326;-65
2022/05/09 01:56:00;;;;;;;;;;;24.70;45.90;;;;;;1569942;76;695;-64
2022/05/09 01:58:01;;;;;;;;;;;24.70;45.90;;;;;;1580923;74;769;-64
2022/05/09 02:00:05;;;;;;;;;;;24.70;45.80;;;;;;1603000;74;719;-65
2022/05/09 02:02:09;;;;;;;;;;;24.70;45.90;;;;;;1602583;74;1130;-66
2022/05/09 02:04:11;;;;;;;;;;;24.70;45.90;;;;;;1592364;74;688;-64
2022/05/09 02:06:14;;;;;;;;;;;24.70;45.90;;;;;;1564222;75;649;-63
2022/05/09 02:08:17;;;;;;;;;;;24.70;45.80;;;;;;1564656;76;608;-66
2022/05/09 02:10:19;;;;;;;;;;;24.70;45.90;;;;;;1558780;76;1754;-64
2022/05/09 02:12:21;;;;;;;;;;;24.60;45.80;;;;;;1550118;76;525;-66
2022/05/09 02:14:23;;;;;;;;;;;24.60;45.80;;;;;;1565968;74;1933;-65
2022/05/09 02:16:25;;;;;;;;;;;24.60;45.80;;;;;;1570384;74;616;-67
2022/05/09 02:18:27;;;;;;;;;;;24.60;45.70;;;;;;1544412;76;599;-67
2022/05/09 02:20:28;;;;;;;;;;;24.70;46.00;;;;;;1542997;76;1107;-64
2022/05/09 02:22:30;;;;;;;;;;;24.70;45.90;;;;;;1546915;76;1068;-67
2022/05/09 02:24:32;;;;;;;;;;;24.70;45.90;;;;;;1556658;76;680;-65
2022/05/09 02:26:34;;;;;;;;;;;24.70;45.90;;;;;;1563369;76;644;-65
2022/05/09 02:28:36;;;;;;;;;;;24.70;45.90;;;;;;1561478;76;1406;-66
2022/05/09 02:30:41;;;;;;;;;;;24.80;45.80;;;;;;1560239;76;1190;-67
2022/05/09 02:32:43;;;;;;;;;;;24.80;45.80;;;;;;1549460;76;769;-64
2022/05/09 02:34:44;;;;;;;;;;;24.80;45.70;;;;;;1555235;74;1935;-66
2022/05/09 02:36:46;;;;;;;;;;;24.90;45.80;;;;;;1569894;76;680;-68
2022/05/09 02:38:48;;;;;;;;;;;24.90;45.60;;;;;;1569901;76;641;-66
2022/05/09 02:40:50;;;;;;;;;;;25.00;45.50;;;;;;1570032;76;1172;-67
2022/05/09 02:42:53;;;;;;;;;;;25.10;45.30;;;;;;1568679;76;777;-64
2022/05/09 02:44:54;;;;;;;;;;;25.20;45.20;;;;;;1553161;76;717;-66
2022/05/09 02:46:56;;;;;;;;;;;25.10;45.20;;;;;;1554218;74;716;-66
2022/05/09 02:49:02;;;;;;;;;;;25.00;45.30;;;;;;1567720;76;647;-64
2022/05/09 02:51:08;;;;;;;;;;;25.00;45.30;;;;;;1543334;77;1163;-65
2022/05/09 02:53:10;;;;;;;;;;;25.00;45.20;;;;;;1570070;74;544;-64
2022/05/09 02:55:12;;;;;;;;;;;25.10;45.20;;;;;;1559895;76;1900;-65
2022/05/09 02:57:14;;;;;;;;;;;25.00;45.40;;;;;;1565304;74;721;-65
2022/05/09 02:59:16;;;;;;;;;;;25.00;45.50;;;;;;1564413;76;745;-66
2022/05/09 03:01:18;;;;;;;;;;;24.90;45.50;;;;;;1563439;74;1152;-64
2022/05/09 03:05:40;;;;;;;;;;;25.00;45.30;;;;;;1554628;74;1522;-62
2022/05/09 03:07:42;;;;;;;;;;;24.90;45.50;;;;;;1562056;76;667;-66
2022/05/09 03:09:45;;;;;;;;;;;24.80;45.40;;;;;;1545846;76;682;-65
2022/05/09 03:11:47;;;;;;;;;;;24.80;45.50;;;;;;1549632;76;1086;-65
2022/05/09 03:13:49;;;;;;;;;;;24.80;45.60;;;;;;1569164;74;1942;-66
2022/05/09 03:15:51;;;;;;;;;;;24.80;45.60;;;;;;1551824;74;614;-68
2022/05/09 03:17:53;;;;;;;;;;;24.80;45.70;;;;;;1544368;76;756;-67
2022/05/09 03:19:57;;;;;;;;;;;24.80;45.70;;;;;;1543214;76;653;-66
2022/05/09 03:21:58;;;;;;;;;;;24.80;45.90;;;;;;1551166;76;1603;-67
2022/05/09 03:24:00;;;;;;;;;;;24.70;46.00;;;;;;1565588;74;1499;-68
2022/05/09 03:26:02;;;;;;;;;;;24.70;45.90;;;;;;1581424;74;500;-70
2022/05/09 03:28:05;;;;;;;;;;;24.70;45.90;;;;;;1554558;76;685;-67
2022/05/09 03:30:07;;;;;;;;;;;24.70;46.00;;;;;;1560485;74;679;-69
2022/05/09 03:32:09;;;;;;;;;;;24.70;46.00;;;;;;1559495;74;577;-66
2022/05/09 03:34:11;;;;;;;;;;;24.80;46.00;;;;;;1583561;74;1943;-66
2022/05/09 03:36:13;;;;;;;;;;;24.70;46.00;;;;;;1561202;76;721;-70
2022/05/09 03:38:15;;;;;;;;;;;24.70;46.10;;;;;;1548572;76;684;-65
2022/05/09 03:40:18;;;;;;;;;;;24.80;46.00;;;;;;1542216;76;1139;-65
2022/05/09 03:42:20;;;;;;;;;;;24.80;45.70;;;;;;1583155;74;742;-66
2022/05/09 03:44:22;;;;;;;;;;;24.90;45.90;;;;;;1572142;75;736;-68
2022/05/09 03:46:24;;;;;;;;;;;24.80;45.80;;;;;;1567406;76;616;-66
2022/05/09 03:48:25;;;;;;;;;;;24.80;45.80;;;;;;1568673;76;701;-65
2022/05/09 03:50:28;;;;;;;;;;;24.80;45.80;;;;;;1562375;75;1260;-67
2022/05/09 03:52:30;;;;;;;;;;;24.90;45.80;;;;;;1569307;76;681;-65
2022/05/09 03:54:32;;;;;;;;;;;24.80;45.70;;;;;;1568214;75;1903;-65
2022/05/09 03:56:34;;;;;;;;;;;24.80;45.70;;;;;;1564998;75;662;-67
2022/05/09 03:58:36;;;;;;;;;;;24.80;45.80;;;;;;1567516;76;695;-66
2022/05/09 04:00:38;;;;;;;;;;;24.90;45.90;;;;;;1564420;76;1134;-66
2022/05/09 04:02:39;;;;;;;;;;;25.00;45.60;;;;;;1561772;76;1377;-69
2022/05/09 04:04:41;;;;;;;;;;;25.10;45.30;;;;;;1509989;78;596;-66
2022/05/09 04:06:43;;;;;;;;;;;25.10;45.20;;;;;;1503716;79;524;-64
2022/05/09 04:08:45;;;;;;;;;;;25.20;45.10;;;;;;1555018;76;767;-63
2022/05/09 04:10:47;;;;;;;;;;;25.10;45.00;;;;;;1567962;76;1133;-64
2022/05/09 04:12:49;;;;;;;;;;;25.20;44.90;;;;;;1567979;74;695;-64
2022/05/09 04:17:11;;;;;;;;;;;25.30;44.60;;;;;;1568424;76;1636;-69
2022/05/09 04:19:13;;;;;;;;;;;25.30;44.60;;;;;;1566453;76;630;-66
2022/05/09 04:21:15;;;;;;;;;;;25.40;44.40;;;;;;1568702;75;1611;-64
2022/05/09 04:23:17;;;;;;;;;;;25.40;44.30;;;;;;1562521;75;666;-64
2022/05/09 04:25:19;;;;;;;;;;;25.40;44.20;;;;;;1565530;76;683;-65
2022/05/09 04:27:21;;;;;;;;;;;25.40;44.20;;;;;;1566845;76;670;-67
2022/05/09 04:29:23;;;;;;;;;;;25.50;44.20;;;;;;1566367;76;744;-69
2022/05/09 04:31:26;;;;;;;;;;;25.40;44.20;;;;;;1564939;76;1133;-65
2022/05/09 04:33:27;;;;;;;;;;;25.40;44.10;;;;;;1566981;76;788;-65
2022/05/09 04:35:29;;;;;;;;;;;25.50;44.10;;;;;;1565747;76;1936;-68
2022/05/09 04:37:32;;;;;;;;;;;25.40;44.10;;;;;;1563659;76;723;-67
2022/05/09 04:39:34;;;;;;;;;;;25.50;44.00;;;;;;1544012;76;644;-65
2022/05/09 04:41:36;;;;;;;;;;;25.40;44.00;;;;;;1554616;76;1174;-64
2022/05/09 04:43:38;;;;;;;;;;;25.40;44.10;;;;;;1544863;76;769;-66
2022/05/09 04:45:41;;;;;;;;;;;25.50;44.10;;;;;;1550414;76;770;-62
2022/05/09 04:47:44;;;;;;;;;;;25.40;44.10;;;;;;1552606;76;697;-63
2022/05/09 04:49:45;;;;;;;;;;;25.30;44.30;;;;;;1556766;76;668;-64
2022/05/09 04:51:47;;;;;;;;;;;25.20;44.40;;;;;;1564195;76;1153;-65
2022/05/09 04:53:52;;;;;;;;;;;25.30;44.70;;;;;;1563356;76;613;-66
2022/05/09 04:55:58;;;;;;;;;;;25.20;44.60;;;;;;1554494;75;1919;-65
2022/05/09 04:57:59;;;;;;;;;;;25.30;44.60;;;;;;1560247;76;1435;-64
2022/05/09 05:00:02;;;;;;;;;;;25.30;44.40;;;;;;1553175;75;698;-65
2022/05/09 05:02:05;;;;;;;;;;;25.40;44.30;;;;;;1560054;76;1165;-64
2022/05/09 05:04:09;;;;;;;;;;;25.30;44.20;;;;;;1550223;75;592;-65
2022/05/09 05:06:11;;;;;;;;;;;25.30;44.30;;;;;;1567583;76;695;-63
2022/05/09 05:08:13;;;;;;;;;;;25.20;44.40;;;;;;1567530;76;733;-66
2022/05/09 05:10:15;;;;;;;;;;;25.20;44.50;;;;;;1556213;76;1173;-63
2022/05/09 05:12:17;;;;;;;;;;;25.20;44.90;;;;;;1551863;76;653;-61
2022/05/09 05:14:19;;;;;;;;;;;25.00;44.90;;;;;;1567340;76;758;-63
2022/05/09 05:16:59;;;;;;;;;;;25.10;45.10;;;;;;1552403;76;1416;-62
2022/05/09 05:18:30;;;;;;;;;;;25.00;45.00;;;;;;1540125;76;1436;-67
2022/05/09 05:20:30;;;;;;;;;;;25.00;45.10;;;;;;1545837;76;1648;-67
2022/05/09 05:22:33;;;;;;;;;;;25.10;45.10;;;;;;1553532;76;509;-67
2022/05/09 05:24:36;;;;;;;;;;;25.00;45.20;;;;;;1543718;76;1872;-65
2022/05/09 05:26:38;;;;;;;;;;;25.20;45.00;;;;;;1543164;77;607;-66
2022/05/09 05:28:39;;;;;;;;;;;25.20;44.70;;;;;;1551498;75;684;-62
2022/05/09 05:30:41;;;;;;;;;;;25.20;44.50;;;;;;1566141;76;1090;-64
2022/05/09 05:32:43;;;;;;;;;;;25.20;44.30;;;;;;1548713;75;680;-64
2022/05/09 05:34:46;;;;;;;;;;;25.20;44.10;;;;;;1564884;75;1938;-63
2022/05/09 05:36:50;;;;;;;;;;;25.20;44.10;;;;;;1555450;76;704;-63
2022/05/09 05:38:54;;;;;;;;;;;25.20;44.00;;;;;;1558841;76;1458;-64
2022/05/09 05:40:59;;;;;;;;;;;25.20;43.90;;;;;;1569992;76;1169;-64
2022/05/09 05:43:01;;;;;;;;;;;25.20;43.80;;;;;;1569863;76;795;-68
2022/05/09 05:45:03;;;;;;;;;;;25.20;43.50;;;;;;1570000;74;695;-64
2022/05/09 05:47:06;;;;;;;;;;;25.20;43.10;;;;;;1558626;76;667;-65
2022/05/09 05:49:09;;;;;;;;;;;25.30;42.90;;;;;;1567896;74;731;-64
2022/05/09 05:51:12;;;;;;;;;;;25.20;42.80;;;;;;1562624;76;1162;-63
2022/05/09 05:53:14;;;;;;;;;;;25.20;42.70;;;;;;1567759;76;705;-63
2022/05/09 05:55:19;;;;;;;;;;;25.20;42.60;;;;;;1567008;76;1928;-65
2022/05/09 05:57:20;;;;;;;;;;;25.30;42.60;;;;;;1561930;74;1568;-68
2022/05/09 05:59:22;;;;;;;;;;;25.20;42.50;;;;;;1568536;74;729;-65
2022/05/09 06:01:24;;;;;;;;;;;25.20;40.30;;;;;;1585065;74;1148;-65
2022/05/09 06:03:26;;;;;;;;;;;25.20;41.50;;;;;;1553481;76;697;-65
2022/05/09 06:05:28;;;;;;;;;;;25.20;41.20;;;;;;1585687;74;696;-62
2022/05/09 06:07:29;;;;;;;;;;;25.00;41.30;;;;;;1569415;76;725;-65
2022/05/09 06:09:31;;;;;;;;;;;25.00;40.60;;;;;;1557207;76;683;-64
2022/05/09 06:11:33;;;;;;;;;;;24.90;41.00;;;;;;1561557;74;1148;-63
2022/05/09 06:13:35;;;;;;;;;;;24.80;40.80;;;;;;1549583;76;1530;-62
2022/05/09 06:15:37;;;;;;;;;;;24.80;41.10;;;;;;1565904;76;1938;-63
2022/05/09 06:17:39;;;;;;;;;;;24.80;41.10;;;;;;1563106;76;742;-63
2022/05/09 06:19:41;;;;;;;;;;;24.70;41.20;;;;;;1562985;75;684;-61
2022/05/09 06:21:43;;;;;;;;;;;24.70;41.30;;;;;;1564390;76;1134;-64
2022/05/09 06:23:45;;;;;;;;;;;24.70;41.40;;;;;;1565388;76;666;-63
2022/05/09 06:25:48;;;;;;;;;;;24.60;41.30;;;;;;1567272;76;671;-64
2022/05/09 06:27:51;;;;;;;;;;;24.60;41.40;;;;;;1561371;76;696;-64
2022/05/09 06:29:52;;;;;;;;;;;24.60;41.50;;;;;;1562022;76;701;-64
2022/05/09 06:31:54;;;;;;;;;;;24.70;41.60;;;;;;1559160;76;1082;-63
2022/05/09 06:33:56;;;;;;;;;;;24.60;41.30;;;;;;1561797;76;1056;-64
2022/05/09 06:35:58;;;;;;;;;;;24.60;41.40;;;;;;1558826;76;1938;-63
2022/05/09 06:38:01;;;;;;;;;;;24.70;41.50;;;;;;1566057;74;653;-63
2022/05/09 06:40:03;;;;;;;;;;;24.70;41.60;;;;;;1559901;76;718;-63
2022/05/09 06:42:05;;;;;;;;;;;24.80;41.60;;;;;;1560007;75;1038;-65
2022/05/09 06:44:09;;;;;;;;;;;24.70;41.60;;;;;;1559629;76;781;-65
2022/05/09 06:46:12;;;;;;;;;;;24.80;41.20;;;;;;1559419;76;872;-61
2022/05/09 06:48:14;;;;;;;;;;;24.80;41.40;;;;;;1560200;75;650;-66
2022/05/09 06:50:16;;;;;;;;;;;24.80;41.30;;;;;;1562167;76;1498;-64
2022/05/09 06:52:18;;;;;;;;;;;24.80;41.30;;;;;;1561727;74;675;-64
2022/05/09 06:54:21;;;;;;;;;;;24.80;41.40;;;;;;1556401;76;707;-64
2022/05/09 06:56:23;;;;;;;;;;;24.90;41.40;;;;;;1556240;76;1907;-64
2022/05/09 06:58:25;;;;;;;;;;;24.80;40.70;;;;;;1549166;74;678;-64
2022/05/09 07:00:27;;;;;;;;;;;24.80;41.10;;;;;;1561886;74;1158;-64
2022/05/09 07:02:31;;;;;;;;;;;24.80;41.20;;;;;;1558974;74;678;-64
2022/05/09 07:04:33;;;;;;;;;;;24.80;41.00;;;;;;1563388;74;654;-63
2022/05/09 07:06:35;;;;;;;;;;;24.60;40.80;;;;;;1566971;74;741;-63
2022/05/09 07:08:37;;;;;;;;;;;24.60;41.00;;;;;;1566090;76;1413;-63
2022/05/09 07:10:39;;;;;;;;;;;24.60;41.20;;;;;;1564525;75;1157;-63
2022/05/09 07:12:42;;;;;;;;;;;24.70;41.30;;;;;;1565838;76;655;-63
2022/05/09 07:14:43;;;;;;;;;;;24.70;41.30;;;;;;1566702;75;883;-63
2022/05/09 07:16:45;;;;;;;;;;;24.70;41.00;;;;;;1569089;76;1939;-63
2022/05/09 07:18:47;;;;;;;;;;;24.70;41.30;;;;;;1568969;75;705;-63
2022/05/09 07:20:49;;;;;;;;;;;24.60;41.00;;;;;;1566029;76;1114;-63
2022/05/09 07:22:51;;;;;;;;;;;24.70;41.30;;;;;;1565506;74;629;-64
2022/05/09 07:24:53;;;;;;;;;;;24.70;41.40;;;;;;1563978;76;662;-63
2022/05/09 07:26:56;;;;;;;;;;;24.70;41.30;;;;;;1565727;76;721;-64
2022/05/09 07:28:58;;;;;;;;;;;24.80;41.20;;;;;;1567464;76;696;-64
2022/05/09 07:31:00;;;;;;;;;;;24.80;41.00;;;;;;1569668;76;1145;-64
2022/05/09 07:33:02;;;;;;;;;;;24.70;41.10;;;;;;1558928;76;688;-64
2022/05/09 07:35:05;;;;;;;;;;;24.70;41.10;;;;;;1563476;76;646;-64
2022/05/09 07:37:07;;;;;;;;;;;24.80;41.20;;;;;;1561697;76;1945;-63
2022/05/09 07:39:09;;;;;;;;;;;24.70;40.80;;;;;;1561413;76;742;-64
2022/05/09 07:41:10;;;;;;;;;;;24.80;41.00;;;;;;1576514;70;2192;-70
2022/05/09 07:43:14;;;;;;;;;;;24.70;41.00;;;;;;1603238;73;681;-70
2022/05/09 07:45:17;;;;;;;;;;;24.80;41.00;;;;;;1605437;73;690;-69
2022/05/09 07:47:19;;;;;;;;;;;24.70;40.90;;;;;;1608850;72;1598;-66
2022/05/09 07:49:21;;;;;;;;;;;24.80;40.70;;;;;;1593967;73;715;-69
2022/05/09 07:51:23;;;;;;;;;;;24.80;40.50;;;;;;1610792;72;1188;-68
2022/05/09 07:53:26;;;;;;;;;;;24.80;40.80;;;;;;1635115;72;559;-69
2022/05/09 07:55:28;;;;;;;;;;;24.70;40.50;;;;;;1632566;72;1909;-68
2022/05/09 07:57:30;;;;;;;;;;;24.60;40.10;;;;;;1628013;72;708;-70
2022/05/09 07:59:32;;;;;;;;;;;24.60;40.70;;;;;;1624482;72;667;-69
2022/05/09 08:01:34;;;;;;;;;;;24.60;41.00;;;;;;1622080;71;1140;-69
2022/05/09 08:03:38;;;;;;;;;;;24.60;41.10;;;;;;1614409;72;677;-69
2022/05/09 08:05:39;;;;;;;;;;;24.60;41.00;;;;;;1625557;72;1422;-68
2022/05/09 08:07:41;;;;;;;;;;;24.70;40.70;;;;;;1618621;72;726;-67
2022/05/09 08:09:43;;;;;;;;;;;24.60;40.60;;;;;;1620165;72;649;-69
2022/05/09 08:11:45;;;;;;;;;;;24.60;40.90;;;;;;1619510;71;1141;-70
2022/05/09 08:13:47;;;;;;;;;;;24.70;41.00;;;;;;1631831;72;723;-69
2022/05/09 08:15:48;;;;;;;;;;;24.60;40.80;;;;;;1612379;71;1940;-68
2022/05/09 08:17:52;;;;;;;;;;;24.50;40.70;;;;;;1626291;72;718;-69
2022/05/09 08:19:55;;;;;;;;;;;24.50;40.60;;;;;;1622633;72;672;-69
2022/05/09 08:21:57;;;;;;;;;;;24.40;41.10;;;;;;1631403;72;1113;-70
2022/05/09 08:24:00;;;;;;;;;;;24.40;41.00;;;;;;1625309;71;796;-70
2022/05/09 08:26:03;;;;;;;;;;;24.50;41.40;;;;;;1630100;72;803;-69
2022/05/09 08:28:05;;;;;;;;;;;24.50;41.40;;;;;;1626020;72;971;-70
2022/05/09 08:30:07;;;;;;;;;;;24.60;41.20;;;;;;1620544;71;783;-68
2022/05/09 08:32:09;;;;;;;;;;;24.50;41.00;;;;;;1633024;72;1128;-69
2022/05/09 08:34:11;;;;;;;;;;;24.60;41.10;;;;;;1597209;73;1294;-69
2022/05/09 08:36:45;;;;;;;;;;;24.60;40.80;;;;;;1624493;72;1926;-70
2022/05/09 08:38:17;;;;;;;;;;;24.50;41.00;;;;;;1612160;72;1448;-68
2022/05/09 08:40:20;;;;;;;;;;;24.50;41.10;;;;;;1616705;72;692;-66
2022/05/09 08:42:41;;;;;;;;;;;24.50;41.10;;;;;;1621577;71;1494;-66
2022/05/09 08:45:01;;;;;;;;;;;24.50;41.00;;;;;;1625695;72;606;-66
2022/05/09 08:47:07;;;;;;;;;;;24.40;41.00;;;;;;1627249;72;855;-69
2022/05/09 08:49:14;;;;;;;;;;;24.40;41.20;;;;;;1632436;72;1722;-66
2022/05/09 08:51:33;;;;;;;;;;;24.30;41.20;;;;;;1583581;74;1279;-67
2022/05/09 08:53:36;;;;;;;;;;;24.30;40.70;;;;;;1626165;71;1787;-68
2022/05/09 08:55:39;;;;;;;;;;;24.30;41.30;;;;;;1631793;72;1812;-69
2022/05/09 08:57:43;;;;;;;;;;;24.30;41.40;;;;;;1623877;72;681;-67
2022/05/09 08:59:52;;;;;;;;;;;24.30;41.50;;;;;;1639728;71;1026;-67
2022/05/09 09:01:55;;;;;;;;;;;24.30;41.50;;;;;;1612767;72;1513;-68
2022/05/09 09:03:59;;;;;;;;;;;24.30;41.50;;;;;;1612441;72;1747;-69
2022/05/09 09:06:18;;;;;;;;;;;24.30;41.50;;;;;;1632434;72;813;-69
2022/05/09 09:08:28;;;;;;;;;;;24.30;41.50;;;;;;1622386;72;678;-69
2022/05/09 09:10:41;;;;;;;;;;;24.20;41.50;;;;;;1630807;72;1907;-69
2022/05/09 09:12:44;;;;;;;;;;;24.10;41.70;;;;;;1620862;72;1477;-70
2022/05/09 09:14:50;;;;;;;;;;;24.20;41.30;;;;;;1639142;71;730;-68
2022/05/09 09:16:54;;;;;;;;;;;24.10;41.60;;;;;;1631966;71;1927;-67
2022/05/09 09:19:00;;;;;;;;;;;24.00;41.60;;;;;;1627832;72;705;-69
2022/05/09 09:21:11;;;;;;;;;;;24.10;41.80;;;;;;1634795;72;1179;-69
2022/05/09 09:23:14;;;;;;;;;;;24.20;41.00;;;;;;1620069;72;676;-68
2022/05/09 09:25:24;;;;;;;;;;;24.10;41.00;;;;;;1629887;72;697;-69
2022/05/09 09:27:30;;;;;;;;;;;24.00;41.40;;;;;;1619543;71;1823;-68
2022/05/09 09:29:36;;;;;;;;;;;24.10;41.70;;;;;;1609389;71;1850;-68
2022/05/09 09:31:39;;;;;;;;;;;24.20;41.60;;;;;;1634048;72;1129;-67
2022/05/09 09:33:42;;;;;;;;;;;24.10;41.50;;;;;;1620195;72;726;-68
2022/05/09 09:35:49;;;;;;;;;;;24.00;41.00;;;;;;1635474;71;737;-69
2022/05/09 09:37:59;;;;;;;;;;;24.00;40.90;;;;;;1632670;72;1927;-68
2022/05/09 09:40:00;;;;;;;;;;;24.00;41.30;;;;;;1609183;71;1713;-67
2022/05/09 09:42:02;;;;;;;;;;;24.00;41.00;;;;;;1627113;71;1158;-67
2022/05/09 09:44:13;;;;;;;;;;;24.00;41.50;;;;;;1612428;71;710;-67
2022/05/09 09:46:15;;;;;;;;;;;24.10;41.60;;;;;;1625889;72;654;-66
2022/05/09 09:48:20;;;;;;;;;;;24.00;41.40;;;;;;1630606;71;636;-66
2022/05/09 09:50:24;;;;;;;;;;;24.00;41.50;;;;;;1634484;72;667;-66
2022/05/09 09:52:28;;;;;;;;;;;24.00;41.30;;;;;;1628181;72;1079;-68
2022/05/09 09:54:31;;;;;;;;;;;24.00;41.20;;;;;;1619754;72;976;-69
2022/05/09 09:56:34;;;;;;;;;;;24.00;41.20;;;;;;1624256;72;1930;-68
2022/05/09 09:58:38;;;;;;;;;;;23.90;41.30;;;;;;1624836;72;1454;-67
2022/05/09 10:00:39;;;;;;;;;;;23.90;41.50;;;;;;1627704;72;1517;-69
2022/05/09 10:02:41;;;;;;;;;;;23.90;41.50;;;;;;1622958;71;728;-69
2022/05/09 10:04:44;;;;;;;;;;;23.90;41.00;;;;;;1633731;71;784;-69
2022/05/09 10:06:58;;;;;;;;;;;23.90;41.50;;;;;;1626898;72;719;-68
2022/05/09 10:09:01;;;;;;;;;;;23.90;41.60;;;;;;1617307;72;1718;-67
2022/05/09 10:11:04;;;;;;;;;;;23.80;41.80;;;;;;1614068;72;1156;-68
2022/05/09 10:13:08;;;;;;;;;;;23.80;41.60;;;;;;1627611;72;1142;-67
2022/05/09 10:15:23;;;;;;;;;;;23.80;41.80;;;;;;1628706;72;1472;-68
2022/05/09 10:17:27;;;;;;;;;;;23.90;41.80;;;;;;1632010;72;1935;-75
2022/05/09 10:19:30;;;;;;;;;;;24.00;41.80;;;;;;1621427;72;655;-73
2022/05/09 10:26:16;;;;;;;;;;;24.20;41.40;;;;;;1632050;71;1636;-74
2022/05/09 10:28:19;;;;;;;;;;;24.30;41.50;;;;;;1613582;72;698;-74
2022/05/09 10:30:29;;;;;;;;;;;24.40;41.50;;;;;;1624774;72;727;-75
2022/05/09 10:32:30;;;;;;;;;;;24.30;41.50;;;;;;1629330;72;1594;-75
2022/05/09 10:34:49;;;;;;;;;;;24.30;41.30;;;;;;1635683;71;657;-75
2022/05/09 10:36:59;;;;;;;;;;;24.40;41.30;;;;;;1612335;72;1922;-76
2022/05/09 10:39:05;;;;;;;;;;;24.50;41.30;;;;;;1633026;72;718;-75
2022/05/09 10:41:12;;;;;;;;;;;24.40;41.20;;;;;;1635835;71;1884;-74
2022/05/09 10:43:17;;;;;;;;;;;24.50;41.20;;;;;;1631879;72;1593;-75
2022/05/09 10:45:20;;;;;;;;;;;24.50;41.30;;;;;;1627813;72;1873;-74
2022/05/09 10:47:23;;;;;;;;;;;24.40;41.10;;;;;;1612261;72;659;-73
2022/05/09 10:49:29;;;;;;;;;;;24.50;41.20;;;;;;1619519;72;696;-75
2022/05/09 10:51:35;;;;;;;;;;;24.50;41.00;;;;;;1613582;72;1150;-73
2022/05/09 10:53:44;;;;;;;;;;;24.50;41.10;;;;;;1616183;72;1492;-73
2022/05/09 10:56:04;;;;;;;;;;;24.50;41.00;;;;;;1611652;72;689;-73
2022/05/09 10:58:11;;;;;;;;;;;24.60;41.00;;;;;;1611080;71;1913;-72
2022/05/09 11:00:19;;;;;;;;;;;24.60;41.00;;;;;;1610100;72;691;-77
2022/05/09 11:02:22;;;;;;;;;;;24.50;41.00;;;;;;1611156;72;1145;-67
2022/05/09 11:04:24;;;;;;;;;;;24.50;41.00;;;;;;1614366;72;691;-65
2022/05/09 11:06:31;;;;;;;;;;;24.50;41.20;;;;;;1613429;72;671;-67
2022/05/09 11:08:35;;;;;;;;;;;24.50;41.30;;;;;;1611527;71;1828;-67
2022/05/09 11:10:40;;;;;;;;;;;24.50;41.30;;;;;;1610117;71;1614;-68
2022/05/09 11:12:43;;;;;;;;;;;24.50;40.30;;;;;;1609474;72;707;-71
2022/05/09 11:14:50;;;;;;;;;;;24.40;40.70;;;;;;1607652;72;698;-70
2022/05/09 11:16:54;;;;;;;;;;;24.20;40.60;;;;;;1607662;72;1936;-69
2022/05/09 11:19:17;;;;;;;;;;;24.20;41.00;;;;;;1607244;72;1066;-68
2022/05/09 11:21:20;;;;;;;;;;;24.10;41.30;;;;;;1609185;72;1945;-71
2022/05/09 11:23:32;;;;;;;;;;;24.10;41.30;;;;;;1611989;72;736;-69
2022/05/09 11:25:42;;;;;;;;;;;24.10;41.40;;;;;;1609547;72;1373;-68
2022/05/09 11:28:02;;;;;;;;;;;24.20;41.50;;;;;;1609847;72;911;-71
2022/05/09 11:30:06;;;;;;;;;;;24.20;41.40;;;;;;1608267;72;774;-68
2022/05/09 11:32:26;;;;;;;;;;;24.20;41.40;;;;;;1610030;72;1644;-66
2022/05/09 11:34:38;;;;;;;;;;;24.30;41.50;;;;;;1613288;72;627;-69
2022/05/09 11:36:42;;;;;;;;;;;24.30;41.50;;;;;;1608252;72;2138;-66
2022/05/09 11:38:51;;;;;;;;;;;24.20;41.30;;;;;;1617709;71;2294;-68
2022/05/09 11:41:01;;;;;;;;;;;24.30;41.30;;;;;;1616025;72;1151;-67
2022/05/09 11:45:43;;;;;;;;;;;24.30;41.20;;;;;;1618552;72;1675;-69
2022/05/09 11:47:58;;;;;;;;;;;24.30;41.00;;;;;;1611984;72;851;-71
2022/05/09 11:50:14;;;;;;;;;;;24.40;41.10;;;;;;1609596;72;1540;-68
2022/05/09 11:52:17;;;;;;;;;;;24.30;41.10;;;;;;1620211;71;1190;-69
2022/05/09 11:54:20;;;;;;;;;;;24.30;41.00;;;;;;1618339;71;1602;-69
2022/05/09 11:56:22;;;;;;;;;;;24.30;41.10;;;;;;1612071;71;760;-70
2022/05/09 11:58:26;;;;;;;;;;;24.40;41.00;;;;;;1610638;72;1918;-69
2022/05/09 12:00:35;;;;;;;;;;;24.30;41.00;;;;;;1613592;71;1783;-70
2022/05/09 12:02:49;;;;;;;;;;;24.30;40.60;;;;;;1623120;72;1429;-67
2022/05/09 12:04:51;;;;;;;;;;;24.30;41.00;;;;;;1626002;72;673;-67
2022/05/09 12:06:53;;;;;;;;;;;24.30;41.00;;;;;;1633077;72;678;-69
2022/05/09 12:08:56;;;;;;;;;;;24.30;41.10;;;;;;1611028;72;691;-69
2022/05/09 12:11:16;;;;;;;;;;;24.20;41.00;;;;;;1619093;72;1149;-69
2022/05/09 12:13:22;;;;;;;;;;;24.30;41.00;;;;;;1623571;72;946;-70
2022/05/09 12:15:25;;;;;;;;;;;24.20;41.00;;;;;;1629879;72;708;-68
2022/05/09 12:17:34;;;;;;;;;;;24.20;40.30;;;;;;1634411;72;1915;-68
2022/05/09 12:19:37;;;;;;;;;;;24.10;40.90;;;;;;1630066;71;663;-68
2022/05/09 12:21:41;;;;;;;;;;;24.10;41.00;;;;;;1636003;71;1147;-70
2022/05/09 12:23:50;;;;;;;;;;;24.20;41.00;;;;;;1622419;72;638;-69
2022/05/09 12:25:55;;;;;;;;;;;24.10;41.00;;;;;;1635243;72;760;-71
2022/05/09 12:28:15;;;;;;;;;;;24.10;41.00;;;;;;1627213;72;1580;-71
2022/05/09 12:30:28;;;;;;;;;;;24.10;41.00;;;;;;1614977;71;692;-71
2022/05/09 12:32:30;;;;;;;;;;;24.00;40.80;;;;;;1591864;72;1161;-70
2022/05/09 12:34:39;;;;;;;;;;;24.00;40.70;;;;;;1626576;72;668;-67